Time;durP1;ratioP1;P1;durP2;ratioP2;P2;SDS_P1;SDS_P2;PMS_P1;PMS_P2;Temp;Humidity;BMP_temperature;BMP_pressure;BME280_temperature;BME280_humidity;BME280_pressure;Samples;Min_cycle;Max_cycle;Signal;HPM_P1;HPM_P2
2022/08/20 00:00:29;;;;;;;7.00;5.95;;;;;;;23.88;46.62;94467.59;5132997;27;20091;-78
2022/08/20 00:03:01;;;;;;;6.60;5.57;;;;;;;23.60;46.75;94410.47;5133334;27;20037;-78
2022/08/20 00:05:35;;;;;;;6.95;5.55;;;;;;;23.71;46.33;94421.41;5115510;27;20068;-78
2022/08/20 00:08:02;;;;;;;7.35;5.78;;;;;;;23.61;46.78;94429.84;5133149;27;20343;-78
2022/08/20 00:10:28;;;;;;;7.20;5.35;;;;;;;23.57;47.15;94432.13;5133051;27;20044;-78
2022/08/20 00:12:54;;;;;;;8.35;5.43;;;;;;;23.82;47.58;94465.78;5133037;27;20469;-78
2022/08/20 00:15:22;;;;;;;6.65;5.68;;;;;;;23.52;47.33;94410.75;5114410;27;20031;-78
2022/08/20 00:17:51;;;;;;;7.30;5.80;;;;;;;23.35;47.99;94441.47;5132876;27;20031;-78
2022/08/20 00:20:18;;;;;;;7.05;5.38;;;;;;;23.17;48.02;94403.25;5132687;27;20030;-78
2022/08/20 00:22:44;;;;;;;6.03;5.45;;;;;;;23.19;48.10;94406.50;5132708;27;20037;-78
2022/08/20 00:25:10;;;;;;;9.38;5.47;;;;;;;23.31;48.13;94429.66;5132647;27;20011;-78
2022/08/20 00:27:35;;;;;;;8.52;5.60;;;;;;;23.53;47.95;94468.03;5132684;27;20038;-78
2022/08/20 00:30:02;;;;;;;8.60;5.93;;;;;;;23.31;48.20;94424.38;5132317;27;20027;-78
2022/08/20 00:32:27;;;;;;;9.85;5.80;;;;;;;23.04;48.24;94411.31;5132791;27;20234;-78
2022/08/20 00:34:53;;;;;;;7.35;5.70;;;;;;;23.33;48.78;94454.13;5132354;27;20027;-78
2022/08/20 00:37:18;;;;;;;7.00;5.90;;;;;;;22.98;48.55;94414.78;5114244;27;20424;-79
2022/08/20 00:39:51;;;;;;;6.60;5.82;;;;;;;23.00;48.43;94410.09;5132286;27;20474;-79
2022/08/20 00:42:16;;;;;;;7.40;5.63;;;;;;;22.85;49.16;94405.06;5113856;27;20495;-79
2022/08/20 00:44:48;;;;;;;7.10;6.00;;;;;;;22.86;49.18;94397.94;5132172;27;20023;-78
2022/08/20 00:47:13;;;;;;;7.93;5.43;;;;;;;23.33;48.77;94464.72;5132254;27;20516;-78
2022/08/20 00:49:41;;;;;;;7.55;5.53;;;;;;;23.10;48.18;94418.41;5132354;27;20026;-78
2022/08/20 00:52:11;;;;;;;7.45;5.70;;;;;;;23.18;48.17;94426.09;5132373;27;20061;-78
2022/08/20 00:54:39;;;;;;;7.00;5.63;;;;;;;23.31;48.59;94421.72;5131996;27;20113;-78
2022/08/20 00:57:12;;;;;;;7.20;5.88;;;;;;;23.20;48.26;94416.06;5132451;27;20043;-78
2022/08/20 00:59:38;;;;;;;11.55;5.90;;;;;;;23.23;48.43;94416.69;5113706;27;20075;-78
2022/08/20 01:02:06;;;;;;;7.60;5.78;;;;;;;23.03;48.81;94393.78;5113946;27;20034;-78
2022/08/20 01:04:33;;;;;;;6.78;5.70;;;;;;;23.33;49.04;94451.47;5113444;27;20046;-78
2022/08/20 01:06:58;;;;;;;8.60;5.80;;;;;;;23.02;48.90;94384.22;5131946;27;20043;-78
2022/08/20 01:09:24;;;;;;;6.97;5.72;;;;;;;23.12;48.63;94405.75;5131729;27;20034;-79
2022/08/20 01:11:49;;;;;;;7.00;5.60;;;;;;;23.08;48.63;94390.50;5113257;27;20027;-78
2022/08/20 01:16:50;;;;;;;7.03;5.70;;;;;;;23.35;48.79;94420.28;5131851;27;20027;-78
2022/08/20 01:19:17;;;;;;;8.82;6.10;;;;;;;23.03;49.29;94393.78;5113686;28;20027;-78
2022/08/20 01:21:42;;;;;;;8.82;5.90;;;;;;;22.93;48.88;94380.19;5113366;27;20107;-78
2022/08/20 01:24:20;;;;;;;6.65;5.68;;;;;;;23.01;48.97;94379.94;5113297;27;20526;-78
2022/08/20 01:26:46;;;;;;;10.10;5.88;;;;;;;23.39;49.21;94430.22;5113359;28;20136;-78
2022/08/20 01:29:14;;;;;;;6.30;5.70;;;;;;;23.07;49.09;94379.09;5131591;27;20027;-78
2022/08/20 01:31:40;;;;;;;6.78;6.00;;;;;;;23.17;49.17;94395.31;5131674;27;20493;-79
2022/08/20 01:34:10;;;;;;;7.30;5.57;;;;;;;23.04;49.91;94387.47;5096194;28;20052;-79
2022/08/20 01:36:38;;;;;;;8.47;6.03;;;;;;;22.92;50.14;94379.34;5131597;28;20046;-78
2022/08/20 01:39:06;;;;;;;6.82;5.60;;;;;;;22.98;49.85;94398.91;5131361;28;20023;-79
2022/08/20 01:41:38;;;;;;;8.65;6.03;;;;;;;22.84;50.72;94378.81;5131469;28;20023;-78
2022/08/20 01:44:04;;;;;;;6.80;5.90;;;;;;;23.07;49.88;94442.66;5113216;28;20124;-78
2022/08/20 01:46:34;;;;;;;7.35;5.85;;;;;;;22.70;50.01;94378.88;5131325;28;20027;-78
2022/08/20 01:48:59;;;;;;;9.48;5.88;;;;;;;23.01;49.87;94435.56;5131573;28;20019;-78
2022/08/20 01:51:29;;;;;;;6.80;6.10;;;;;;;22.91;49.91;94436.00;5113102;28;20027;-78
2022/08/20 01:53:55;;;;;;;8.30;6.57;;;;;;;22.56;50.30;94387.09;5131329;28;20030;-79
2022/08/20 01:56:23;;;;;;;7.47;5.68;;;;;;;22.52;50.66;94394.66;5131234;27;20026;-79
2022/08/20 01:58:50;;;;;;;7.20;5.93;;;;;;;22.53;50.59;94375.09;5135039;27;20098;-79
2022/08/20 02:01:36;;;;;;;6.75;5.85;;;;;;;22.51;50.68;94366.56;5135649;27;20038;-78
2022/08/20 02:04:03;;;;;;;7.05;5.93;;;;;;;22.39;50.92;94369.06;5135338;27;20134;-78
2022/08/20 02:06:30;;;;;;;9.75;6.47;;;;;;;22.17;51.43;94344.69;5135419;27;20080;-78
2022/08/20 02:08:57;;;;;;;6.68;5.97;;;;;;;22.53;51.21;94406.84;5135214;27;20442;-78
2022/08/20 02:11:23;;;;;;;6.97;6.28;;;;;;;22.19;51.53;94352.47;5135352;27;20031;-79
2022/08/20 02:13:51;;;;;;;7.28;6.55;;;;;;;22.51;51.26;94409.72;5135234;27;20052;-78
2022/08/20 02:16:27;;;;;;;6.47;5.72;;;;;;;22.35;51.46;94377.66;5134953;27;20503;-79
2022/08/20 02:18:56;;;;;;;9.05;6.25;;;;;;;22.28;51.37;94380.31;5100134;27;20023;-79
2022/08/20 02:21:22;;;;;;;7.40;6.57;;;;;;;22.11;51.64;94347.38;5116926;27;20026;-79
2022/08/20 02:23:47;;;;;;;8.07;5.57;;;;;;;22.59;51.55;94408.66;5116602;27;20031;-79
2022/08/20 02:26:13;;;;;;;7.82;6.13;;;;;;;22.38;50.99;94366.63;5134882;27;20106;-79
2022/08/20 02:28:39;;;;;;;8.98;6.00;;;;;;;22.52;51.04;94373.50;5116518;27;20035;-78
2022/08/20 02:31:07;;;;;;;8.48;6.03;;;;;;;22.49;50.90;94376.56;5134709;27;20022;-79
2022/08/20 02:33:35;;;;;;;10.52;6.00;;;;;;;22.69;51.43;94408.22;5117006;27;20035;-79
2022/08/20 02:36:01;;;;;;;6.80;6.10;;;;;;;22.29;50.93;94329.84;5134537;27;20039;-78
2022/08/20 02:38:27;;;;;;;7.65;5.95;;;;;;;22.45;50.99;94343.59;5116377;27;20031;-78
2022/08/20 02:40:52;;;;;;;8.13;6.55;;;;;;;22.83;50.79;94399.19;5134515;27;20594;-79
2022/08/20 02:43:18;;;;;;;7.47;5.95;;;;;;;22.51;50.73;94348.88;5134882;27;20035;-78
2022/08/20 02:45:44;;;;;;;8.18;6.05;;;;;;;22.41;51.25;94340.56;5134394;27;20038;-79
2022/08/20 02:48:14;;;;;;;8.05;5.90;;;;;;;22.42;51.28;94344.00;5134612;27;20039;-78
2022/08/20 02:50:41;;;;;;;11.63;6.57;;;;;;;22.70;51.63;94401.88;5116505;27;20084;-79
2022/08/20 02:53:06;;;;;;;7.53;6.13;;;;;;;22.35;51.74;94354.66;5134255;27;20023;-79
2022/08/20 02:55:32;;;;;;;7.35;6.07;;;;;;;22.40;51.69;94375.16;5134579;27;20046;-78
2022/08/20 02:57:58;;;;;;;8.52;5.97;;;;;;;22.22;52.31;94354.69;5116258;27;20061;-79
2022/08/20 03:00:24;;;;;;;10.07;6.43;;;;;;;22.20;52.99;94410.44;5134137;27;20444;-78
2022/08/20 03:02:52;;;;;;;7.28;6.57;;;;;;;22.21;53.09;94414.72;5116057;27;20042;-78
2022/08/20 03:05:17;;;;;;;8.35;6.55;;;;;;;21.84;53.30;94366.78;5116240;27;20024;-78
2022/08/20 03:07:52;;;;;;;7.22;6.47;;;;;;;21.74;53.62;94369.03;5133646;27;20043;-78
2022/08/20 03:10:21;;;;;;;7.75;6.00;;;;;;;21.69;54.00;94360.09;5133607;27;20534;-79
2022/08/20 03:12:46;;;;;;;10.90;6.25;;;;;;;21.69;53.74;94355.63;5134241;27;20035;-78
2022/08/20 03:15:12;;;;;;;7.45;6.63;;;;;;;21.73;53.85;94375.38;5133952;27;20054;-78
2022/08/20 03:17:37;;;;;;;7.03;6.13;;;;;;;21.78;53.66;94367.59;5134133;27;20458;-79
2022/08/20 03:20:06;;;;;;;7.25;6.55;;;;;;;21.80;53.49;94360.28;5133966;27;20412;-78
2022/08/20 03:22:31;;;;;;;7.93;6.50;;;;;;;21.81;54.02;94359.28;5134003;27;20031;-78
2022/08/20 03:24:57;;;;;;;7.55;6.10;;;;;;;21.86;54.16;94366.56;5133771;27;20450;-78
2022/08/20 03:27:22;;;;;;;7.72;6.18;;;;;;;21.64;54.55;94364.16;5133789;27;20408;-79
2022/08/20 03:29:48;;;;;;;9.98;6.13;;;;;;;21.67;54.87;94367.44;5133642;27;20027;-78
2022/08/20 03:32:13;;;;;;;8.85;7.00;;;;;;;21.99;55.00;94415.97;5133878;27;20036;-78
2022/08/20 03:34:39;;;;;;;7.18;6.07;;;;;;;21.63;55.18;94359.91;5133477;27;20027;-78
2022/08/20 03:37:04;;;;;;;7.68;6.88;;;;;;;21.57;55.31;94355.47;5133694;27;20035;-79
2022/08/20 03:39:30;;;;;;;8.15;6.28;;;;;;;21.57;55.36;94359.94;5115071;27;20386;-79
2022/08/20 03:41:58;;;;;;;9.07;6.13;;;;;;;21.91;54.79;94410.91;5133478;27;20027;-78
2022/08/20 03:44:25;;;;;;;9.23;6.38;;;;;;;21.60;54.75;94360.31;5133386;27;20481;-79
2022/08/20 03:46:51;;;;;;;7.20;6.50;;;;;;;21.60;54.68;94359.53;5133145;27;20035;-78
2022/08/20 03:49:16;;;;;;;8.93;6.70;;;;;;;21.75;54.58;94368.00;5133321;27;20026;-79
2022/08/20 03:51:42;;;;;;;7.35;6.45;;;;;;;21.82;54.19;94374.13;5133278;27;20035;-79
2022/08/20 03:54:07;;;;;;;7.47;6.53;;;;;;;21.74;54.24;94378.81;5133046;27;20028;-79
2022/08/20 03:56:32;;;;;;;7.65;6.50;;;;;;;22.16;54.06;94424.28;5132934;27;20035;-79
2022/08/20 03:58:58;;;;;;;10.18;6.35;;;;;;;21.79;53.87;94357.88;5114696;27;20023;-79
2022/08/20 04:01:24;;;;;;;9.82;6.68;;;;;;;22.24;54.02;94416.94;5114974;27;20019;-79
2022/08/20 04:03:49;;;;;;;9.95;6.22;;;;;;;21.81;54.35;94372.50;5132907;27;20473;-79
2022/08/20 04:06:18;;;;;;;10.73;6.18;;;;;;;21.89;53.96;94362.72;5133107;27;20043;-79
2022/08/20 04:08:43;;;;;;;9.23;6.68;;;;;;;21.99;54.09;94377.13;5132772;27;20080;-79
2022/08/20 04:11:11;;;;;;;7.68;6.50;;;;;;;22.32;54.22;94420.41;5114659;27;20023;-79
2022/08/20 04:13:37;;;;;;;8.68;6.65;;;;;;;22.22;54.21;94420.81;5133424;27;20393;-78
2022/08/20 04:16:08;;;;;;;8.65;6.80;;;;;;;21.95;54.09;94389.13;5133078;27;20030;-78
2022/08/20 04:18:35;;;;;;;9.60;6.65;;;;;;;21.96;53.77;94385.47;5133302;27;20038;-78
2022/08/20 04:21:01;;;;;;;7.13;6.43;;;;;;;21.93;54.14;94374.50;5132196;27;20504;-79
2022/08/20 04:23:30;;;;;;;7.07;6.30;;;;;;;22.01;53.65;94382.22;5132823;27;20023;-79
2022/08/20 04:25:56;;;;;;;6.95;6.25;;;;;;;22.39;53.76;94431.75;5132879;27;20106;-78
2022/08/20 04:28:28;;;;;;;8.55;6.30;;;;;;;22.22;53.17;94381.94;5132903;27;20035;-78
2022/08/20 04:30:58;;;;;;;7.53;6.60;;;;;;;22.53;52.99;94426.19;5115212;27;20113;-79
2022/08/20 04:33:25;;;;;;;7.33;6.27;;;;;;;22.32;53.17;94378.06;5132266;27;20042;-79
2022/08/20 04:35:50;;;;;;;8.23;6.47;;;;;;;22.46;52.85;94390.22;5114221;27;20023;-79
2022/08/20 04:38:17;;;;;;;7.18;6.47;;;;;;;22.27;52.97;94342.47;5114011;27;20038;-79
2022/08/20 04:40:52;;;;;;;7.40;6.57;;;;;;;22.46;52.79;94353.16;5132090;27;20031;-79
2022/08/20 04:43:18;;;;;;;7.32;6.15;;;;;;;22.77;52.57;94389.44;5132801;27;20054;-79
2022/08/20 04:45:45;;;;;;;6.95;6.25;;;;;;;23.01;52.31;94419.66;5132264;27;20485;-79
2022/08/20 04:48:11;;;;;;;8.05;6.07;;;;;;;22.81;52.38;94382.69;5131972;27;20038;-78
2022/08/20 04:50:37;;;;;;;8.98;6.50;;;;;;;22.98;52.21;94380.38;5132155;27;20031;-79
2022/08/20 04:53:06;;;;;;;10.23;6.60;;;;;;;22.94;52.85;94387.09;5132383;27;20038;-78
2022/08/20 04:55:33;;;;;;;8.50;6.57;;;;;;;23.43;52.01;94433.25;5132217;27;20076;-79
2022/08/20 04:58:06;;;;;;;7.53;6.45;;;;;;;23.77;50.70;94394.88;5132316;27;20288;-79
2022/08/20 05:00:32;;;;;;;7.25;6.55;;;;;;;24.20;48.69;94380.72;5113943;27;20039;-79
2022/08/20 05:02:57;;;;;;;7.50;6.20;;;;;;;24.75;48.19;94431.16;5131634;27;20036;-79
2022/08/20 05:05:23;;;;;;;6.80;5.82;;;;;;;24.61;48.00;94383.75;5131771;27;20023;-79
2022/08/20 05:07:48;;;;;;;7.68;5.97;;;;;;;25.17;46.74;94386.03;5132027;27;20075;-79
2022/08/20 05:10:15;;;;;;;8.93;5.95;;;;;;;26.14;44.93;94414.13;5131687;27;20015;-79
2022/08/20 05:12:41;;;;;;;7.03;6.22;;;;;;;26.70;43.89;94423.31;5113430;27;20043;-79
2022/08/20 05:15:10;;;;;;;7.47;6.03;;;;;;;26.37;43.56;94372.53;5131654;27;20390;-79
2022/08/20 05:17:36;;;;;;;7.28;6.20;;;;;;;25.68;45.21;94362.53;5131927;27;20035;-79
2022/08/20 05:20:02;;;;;;;7.18;6.05;;;;;;;25.44;46.00;94380.31;5131705;27;20016;-79
2022/08/20 05:22:37;;;;;;;7.32;5.88;;;;;;;25.57;46.14;94422.63;5131748;27;20024;-79
2022/08/20 05:25:02;;;;;;;8.38;5.93;;;;;;;25.17;46.86;94406.50;5114568;27;20027;-79
2022/08/20 05:27:28;;;;;;;9.02;6.72;;;;;;;25.29;47.17;94417.97;5131649;27;20503;-79
2022/08/20 05:30:06;;;;;;;8.23;6.30;;;;;;;25.23;47.53;94418.88;5113386;27;20511;-79
2022/08/20 05:32:32;;;;;;;7.28;6.53;;;;;;;25.13;47.46;94384.03;5096987;28;20508;-79
2022/08/20 05:34:57;;;;;;;7.25;6.35;;;;;;;25.23;47.69;94410.09;5131467;28;20030;-79
2022/08/20 05:37:23;;;;;;;7.90;6.53;;;;;;;24.85;48.27;94366.03;5131663;28;20031;-79
2022/08/20 05:39:48;;;;;;;7.10;6.40;;;;;;;25.00;47.93;94374.44;5131121;28;20030;-79
2022/08/20 05:42:16;;;;;;;9.00;6.55;;;;;;;25.27;48.04;94406.78;5113098;28;20027;-79
2022/08/20 05:44:41;;;;;;;7.82;7.03;;;;;;;24.96;48.19;94352.00;5131473;28;20072;-79
2022/08/20 05:47:09;;;;;;;8.57;6.63;;;;;;;25.01;47.79;94353.97;5131392;28;20258;-79
2022/08/20 05:49:35;;;;;;;7.75;6.65;;;;;;;25.24;47.67;94375.34;5131392;28;20031;-79
2022/08/20 05:52:00;;;;;;;10.00;6.93;;;;;;;25.21;47.68;94364.31;5095926;28;20035;-79
2022/08/20 05:54:26;;;;;;;8.95;6.63;;;;;;;25.47;47.41;94406.44;5131306;28;20110;-79
2022/08/20 05:56:52;;;;;;;10.07;6.65;;;;;;;25.51;47.74;94404.94;5131504;28;20062;-79
2022/08/20 05:59:19;;;;;;;8.50;6.80;;;;;;;25.26;48.08;94359.94;5131108;28;20039;-78
2022/08/20 06:01:45;;;;;;;7.55;6.75;;;;;;;25.11;48.50;94354.25;5131105;28;20373;-79
2022/08/20 06:04:28;;;;;;;8.55;6.72;;;;;;;25.05;48.81;94357.81;5131518;28;20031;-78
2022/08/20 06:07:02;;;;;;;10.02;7.07;;;;;;;25.21;47.96;94359.00;5113666;28;20070;-79
2022/08/20 06:09:28;;;;;;;;;;;;;;;25.58;47.90;94402.19;5132075;28;20038;-79
2022/08/20 06:11:53;;;;;;;7.85;6.63;;;;;;;25.52;47.61;94365.88;5131257;28;19975;-79
2022/08/20 06:14:19;;;;;;;11.80;7.70;;;;;;;25.68;48.22;94397.09;5112886;28;20042;-78
2022/08/20 06:16:44;;;;;;;14.82;7.40;;;;;;;25.65;48.05;94362.97;5130874;28;20059;-79
2022/08/20 06:19:10;;;;;;;11.02;6.72;;;;;;;26.06;47.33;94396.66;5130915;28;20057;-78
2022/08/20 06:21:35;;;;;;;11.73;7.35;;;;;;;26.28;46.63;94396.84;5130687;28;20046;-79
2022/08/20 06:24:01;;;;;;;12.00;6.95;;;;;;;26.17;46.34;94354.31;5131300;28;20487;-79
2022/08/20 06:26:27;;;;;;;8.43;6.70;;;;;;;26.49;45.45;94378.63;5130899;28;20027;-79
2022/08/20 06:28:52;;;;;;;18.50;6.97;;;;;;;26.82;44.81;94406.47;5112997;28;20027;-80
2022/08/20 06:31:20;;;;;;;10.60;7.68;;;;;;;26.69;45.53;94363.09;5112747;28;20080;-80
2022/08/20 06:33:46;;;;;;;9.98;7.45;;;;;;;26.87;45.14;94366.59;5131396;28;20027;-80
2022/08/20 06:36:11;;;;;;;9.73;7.63;;;;;;;26.98;45.19;94360.41;5131676;28;20027;-80
2022/08/20 06:38:37;;;;;;;9.27;7.22;;;;;;;27.37;44.57;94411.22;5131906;28;20034;-80
2022/08/20 06:41:02;;;;;;;11.23;6.93;;;;;;;27.28;44.06;94367.34;5131132;28;20100;-80
2022/08/20 06:43:28;;;;;;;16.40;7.47;;;;;;;27.38;44.16;94370.16;5133742;27;20043;-80
2022/08/20 06:45:56;;;;;;;10.88;7.15;;;;;;;27.78;43.23;94407.34;5116847;27;20532;-80
2022/08/20 06:48:24;;;;;;;11.50;6.82;;;;;;;27.90;43.16;94401.94;5117112;27;20087;-80
2022/08/20 06:50:52;;;;;;;12.20;6.93;;;;;;;27.75;42.67;94359.81;5134713;27;20044;-80
2022/08/20 06:53:19;;;;;;;9.38;6.80;;;;;;;27.94;42.24;94371.03;5134836;27;20126;-80
2022/08/20 06:55:47;;;;;;;10.10;7.40;;;;;;;27.95;41.87;94367.31;5134706;27;20111;-79
2022/08/20 06:58:13;;;;;;;12.15;7.03;;;;;;;27.98;41.14;94364.16;5116524;27;20615;-80
2022/08/20 07:00:41;;;;;;;8.38;6.80;;;;;;;28.07;41.84;94397.38;5116425;27;20118;-80
2022/08/20 07:03:06;;;;;;;7.95;6.30;;;;;;;27.92;42.66;94349.13;5135094;27;20035;-80
2022/08/20 07:05:35;;;;;;;8.40;6.70;;;;;;;28.39;42.28;94391.41;5134772;27;20054;-79
2022/08/20 07:08:00;;;;;;;7.72;6.60;;;;;;;28.35;42.08;94360.88;5134937;27;20411;-80
2022/08/20 07:10:27;;;;;;;7.95;6.68;;;;;;;28.44;42.13;94347.94;5134648;27;20022;-80
2022/08/20 07:12:52;;;;;;;8.10;6.90;;;;;;;28.74;40.95;94382.22;5116222;27;20031;-80
2022/08/20 07:15:19;;;;;;;7.60;6.82;;;;;;;28.69;40.82;94344.75;5116330;27;20030;-79
2022/08/20 07:17:53;;;;;;;8.57;6.90;;;;;;;28.81;40.52;94337.41;5116416;27;20031;-80
2022/08/20 07:20:18;;;;;;;7.97;6.70;;;;;;;28.87;40.40;94328.38;5134403;27;20052;-80
2022/08/20 07:22:44;;;;;;;10.55;7.32;;;;;;;29.00;40.20;94345.06;5134378;27;20405;-82
2022/08/20 07:25:11;;;;;;;8.63;6.90;;;;;;;29.03;39.78;94325.81;5116360;27;20467;-82
2022/08/20 07:27:37;;;;;;;9.57;7.00;;;;;;;29.23;40.04;94333.28;5134824;27;20099;-82
2022/08/20 07:32:48;;;;;;;8.88;7.13;;;;;;;29.59;39.58;94369.13;5118948;27;20661;-82
2022/08/20 07:35:14;;;;;;;7.50;6.30;;;;;;;29.57;37.58;94371.25;5134908;27;20024;-82
2022/08/20 07:37:41;;;;;;;9.13;6.07;;;;;;;28.95;37.63;94327.13;5099104;27;20108;-81
2022/08/20 07:40:12;;;;;;;10.90;6.10;;;;;;;28.90;37.99;94295.78;5116068;27;20110;-81
2022/08/20 07:42:38;;;;;;;;;;;;;;;29.39;38.54;94361.72;5134489;27;20023;-81
2022/08/20 07:45:10;;;;;;;8.35;6.22;;;;;;;29.20;38.24;94361.34;5134168;27;20319;-81
2022/08/20 07:47:38;;;;;;;9.18;6.40;;;;;;;29.46;37.65;94364.22;5116349;27;20117;-81
2022/08/20 07:50:04;;;;;;;7.38;6.63;;;;;;;29.30;37.92;94342.69;5116055;27;20457;-81
2022/08/20 07:52:34;;;;;;;8.95;6.68;;;;;;;29.54;38.22;94361.06;5115660;27;20027;-81
2022/08/20 07:55:03;;;;;;;9.00;6.63;;;;;;;29.57;37.87;94360.56;5132862;27;20027;-82
2022/08/20 07:57:29;;;;;;;7.60;6.53;;;;;;;29.67;38.01;94362.50;5099402;27;20039;-81
2022/08/20 07:59:57;;;;;;;8.10;6.57;;;;;;;29.56;37.50;94359.75;5098386;27;20035;-81
2022/08/20 08:02:23;;;;;;;7.97;6.88;;;;;;;29.47;38.57;94349.78;5134033;27;20039;-81
2022/08/20 08:04:48;;;;;;;8.25;6.90;;;;;;;29.23;39.27;94352.78;5133506;27;20374;-82
2022/08/20 08:07:15;;;;;;;7.10;6.40;;;;;;;29.22;38.84;94358.38;5098352;27;20122;-82
2022/08/20 08:09:41;;;;;;;7.45;6.70;;;;;;;29.45;38.66;94362.59;5115218;27;20153;-81
2022/08/20 08:12:06;;;;;;;8.00;6.82;;;;;;;29.48;38.60;94364.78;5133707;27;20083;-81
2022/08/20 08:14:32;;;;;;;7.65;6.68;;;;;;;29.45;38.18;94338.50;5133247;27;20027;-81
2022/08/20 08:17:00;;;;;;;7.90;6.43;;;;;;;29.71;38.31;94364.44;5115269;27;20031;-81
2022/08/20 08:19:26;;;;;;;8.25;7.00;;;;;;;29.83;37.88;94362.34;5133294;27;20515;-81
2022/08/20 08:21:52;;;;;;;10.05;6.60;;;;;;;29.97;37.91;94361.91;5098041;27;20060;-81
2022/08/20 08:24:18;;;;;;;9.75;6.85;;;;;;;29.80;37.93;94333.44;5097633;27;20415;-82
2022/08/20 08:26:48;;;;;;;7.30;6.32;;;;;;;29.91;37.16;94357.59;5133210;27;20473;-81
2022/08/20 08:29:15;;;;;;;7.63;6.88;;;;;;;29.99;37.58;94363.28;5133273;27;20037;-81
2022/08/20 08:31:41;;;;;;;7.53;6.75;;;;;;;29.76;37.70;94312.81;5133578;27;20669;-82
2022/08/20 08:34:07;;;;;;;7.55;6.75;;;;;;;29.87;37.39;94316.38;5097785;27;20083;-81
2022/08/20 08:36:32;;;;;;;8.73;6.72;;;;;;;30.21;37.10;94340.91;5114858;27;20022;-82
2022/08/20 08:38:58;;;;;;;8.45;6.97;;;;;;;30.03;36.88;94310.00;5114843;27;20095;-81
2022/08/20 08:41:33;;;;;;;7.40;6.70;;;;;;;30.22;37.39;94342.53;5133534;27;20072;-81
2022/08/20 08:44:04;;;;;;;9.95;6.82;;;;;;;30.20;36.85;94305.28;5098623;27;20054;-81
2022/08/20 08:46:33;;;;;;;9.18;7.03;;;;;;;30.30;36.94;94303.72;5114455;27;20015;-82
2022/08/20 08:49:00;;;;;;;7.50;6.80;;;;;;;30.36;36.19;94327.59;5114896;27;20046;-82
2022/08/20 08:51:37;;;;;;;7.07;6.32;;;;;;;30.03;35.86;94285.91;5081246;27;20110;-81
2022/08/20 08:54:02;;;;;;;9.27;7.40;;;;;;;29.99;36.47;94277.59;5115013;27;20088;-82
2022/08/20 08:56:29;;;;;;;7.13;6.50;;;;;;;30.39;36.24;94320.91;5114509;27;20027;-82
2022/08/20 08:59:00;;;;;;;9.55;6.65;;;;;;;30.31;37.11;94311.50;5097160;27;20031;-82
2022/08/20 09:01:26;;;;;;;16.88;8.90;;;;;;;30.24;37.48;94268.88;5097757;27;20026;-82
2022/08/20 09:03:54;;;;;;;8.57;7.00;;;;;;;30.24;36.64;94255.50;5132641;27;20031;-82
2022/08/20 09:06:23;;;;;;;7.82;7.03;;;;;;;30.57;36.94;94266.03;5132833;27;20083;-82
2022/08/20 09:08:51;;;;;;;7.93;6.78;;;;;;;30.63;35.15;94273.03;5114012;27;20043;-82
2022/08/20 09:11:16;;;;;;;8.73;7.05;;;;;;;30.76;35.11;94269.00;5114206;27;20019;-79
2022/08/20 09:13:42;;;;;;;8.98;7.22;;;;;;;30.86;35.89;94279.78;5132605;27;20026;-82
2022/08/20 09:16:08;;;;;;;8.55;6.30;;;;;;;30.85;33.96;94278.19;5114280;27;20026;-81
2022/08/20 09:18:34;;;;;;;8.50;6.95;;;;;;;30.70;34.97;94309.22;5096603;27;20072;-82
2022/08/20 09:20:59;;;;;;;7.25;6.50;;;;;;;30.58;35.25;94268.44;5132430;27;20038;-82
2022/08/20 09:23:25;;;;;;;7.45;6.75;;;;;;;30.94;35.44;94306.88;5114187;27;20023;-81
2022/08/20 09:25:53;;;;;;;7.50;6.80;;;;;;;31.08;34.88;94307.16;5113986;27;20051;-82
2022/08/20 09:28:19;;;;;;;8.75;7.00;;;;;;;31.12;34.86;94289.47;5113450;27;20052;-82
2022/08/20 09:30:44;;;;;;;9.07;6.47;;;;;;;31.26;34.06;94286.22;5114104;27;20027;-82
2022/08/20 09:33:10;;;;;;;10.00;6.53;;;;;;;31.27;33.23;94296.69;5132080;27;20042;-82
2022/08/20 09:35:36;;;;;;;7.18;6.47;;;;;;;31.00;33.37;94253.25;5096824;28;20034;-80
2022/08/20 09:38:02;;;;;;;8.95;6.57;;;;;;;31.15;32.86;94270.16;5132202;28;20059;-82
2022/08/20 09:40:27;;;;;;;10.32;6.53;;;;;;;31.39;32.25;94291.88;5113902;28;20735;-80
2022/08/20 09:42:53;;;;;;;8.63;6.40;;;;;;;31.52;30.92;94287.06;5132364;28;20397;-82
2022/08/20 09:45:19;;;;;;;7.75;6.47;;;;;;;31.34;31.53;94242.75;5113541;28;20035;-82
2022/08/20 09:47:44;;;;;;;10.13;6.25;;;;;;;31.40;32.09;94255.16;5131876;28;20035;-82
2022/08/20 09:50:10;;;;;;;7.43;6.60;;;;;;;31.75;32.78;94280.28;5132469;28;20053;-79
2022/08/20 09:52:40;;;;;;;8.38;6.55;;;;;;;31.82;33.61;94276.25;5113783;28;20374;-82
2022/08/20 09:55:45;;;;;;;7.28;6.57;;;;;;;31.84;33.20;94275.97;5113685;28;20038;-82
2022/08/20 09:58:25;;;;;;;7.75;6.68;;;;;;;31.71;33.18;94284.63;5109884;28;20469;-82
2022/08/20 10:00:51;;;;;;;8.43;6.65;;;;;;;31.57;33.81;94247.59;5131901;28;20126;-84
2022/08/20 10:03:16;;;;;;;6.97;6.38;;;;;;;31.49;33.60;94245.47;5113584;28;20115;-84
2022/08/20 10:05:45;;;;;;;8.00;6.70;;;;;;;31.54;33.65;94241.97;5096685;28;20031;-84
2022/08/20 10:08:11;;;;;;;8.52;6.38;;;;;;;31.88;34.11;94273.56;5132312;28;20039;-84
2022/08/20 10:10:36;;;;;;;8.93;6.90;;;;;;;31.64;32.94;94211.59;5079538;28;20549;-82
2022/08/20 10:13:02;;;;;;;7.57;6.78;;;;;;;31.77;33.67;94235.19;5132100;28;20085;-84
2022/08/20 10:15:28;;;;;;;8.75;6.50;;;;;;;31.95;33.47;94269.50;5096552;28;20107;-82
2022/08/20 10:17:55;;;;;;;7.60;6.90;;;;;;;31.88;33.13;94270.88;5097437;27;20056;-85
2022/08/20 10:20:24;;;;;;;7.88;6.95;;;;;;;31.44;33.22;94226.69;5084051;27;20016;-83
2022/08/20 10:22:49;;;;;;;7.60;6.80;;;;;;;31.88;32.94;94263.63;5101150;27;20034;-84
2022/08/20 10:25:18;;;;;;;8.93;7.18;;;;;;;31.81;32.98;94230.88;5117571;27;20035;-83
2022/08/20 10:27:46;;;;;;;11.18;6.65;;;;;;;31.90;33.42;94225.75;5100267;27;20043;-84
2022/08/20 10:30:11;;;;;;;7.38;6.32;;;;;;;32.00;33.16;94226.53;5101289;27;20023;-84
2022/08/20 10:32:37;;;;;;;8.85;7.00;;;;;;;32.14;32.25;94220.56;5100079;27;20484;-83
2022/08/20 10:35:03;;;;;;;9.10;6.97;;;;;;;32.47;31.78;94245.97;5099806;27;20488;-84
2022/08/20 10:37:28;;;;;;;9.65;6.28;;;;;;;32.32;30.97;94236.06;5099894;27;20035;-84
2022/08/20 10:39:54;;;;;;;7.93;6.20;;;;;;;32.44;31.77;94243.78;5116794;27;20526;-84
2022/08/20 10:42:19;;;;;;;6.90;6.30;;;;;;;32.49;32.40;94247.28;5100060;27;20031;-84
2022/08/20 10:44:45;;;;;;;8.27;6.63;;;;;;;32.58;32.32;94244.00;5083223;27;20026;-83
2022/08/20 10:47:16;;;;;;;8.80;7.00;;;;;;;32.54;32.02;94237.56;5135460;27;20476;-84
2022/08/20 10:49:42;;;;;;;7.82;6.60;;;;;;;32.44;31.67;94206.19;5117228;27;20038;-84
2022/08/20 10:52:07;;;;;;;9.15;6.68;;;;;;;32.54;31.13;94208.00;5100038;27;20289;-84
2022/08/20 10:54:33;;;;;;;7.00;6.30;;;;;;;32.28;31.55;94192.03;5135046;27;20469;-84
2022/08/20 10:57:02;;;;;;;8.35;6.68;;;;;;;32.47;31.27;94184.94;5116737;27;20048;-84
2022/08/20 10:59:27;;;;;;;7.00;6.13;;;;;;;32.48;31.94;94170.44;5134726;27;20576;-84
2022/08/20 11:01:53;;;;;;;7.30;6.60;;;;;;;32.78;31.62;94206.22;5135740;27;20051;-84
2022/08/20 11:04:18;;;;;;;7.88;7.00;;;;;;;32.82;31.60;94218.03;5116494;27;20088;-84
2022/08/20 11:06:44;;;;;;;8.05;7.22;;;;;;;32.72;31.71;94188.53;5116348;27;20424;-84
2022/08/20 11:09:09;;;;;;;7.68;6.82;;;;;;;32.89;31.52;94223.88;5116616;27;20034;-84
2022/08/20 11:11:35;;;;;;;10.20;6.88;;;;;;;32.85;31.49;94214.00;5116751;27;20019;-83
2022/08/20 11:14:00;;;;;;;7.32;6.50;;;;;;;32.55;31.48;94182.75;5116508;27;20019;-84
2022/08/20 11:16:26;;;;;;;9.05;7.10;;;;;;;32.80;31.34;94214.81;5134909;27;20030;-83
2022/08/20 11:18:51;;;;;;;7.55;6.80;;;;;;;32.54;31.64;94173.06;5116492;27;20110;-83
2022/08/20 11:21:17;;;;;;;8.07;7.28;;;;;;;32.49;31.63;94163.97;5116224;27;20121;-81
2022/08/20 11:23:42;;;;;;;8.07;7.28;;;;;;;32.44;31.50;94215.03;5134564;27;20326;-84
2022/08/20 11:26:08;;;;;;;8.95;7.00;;;;;;;31.97;31.58;94159.94;5134517;27;20038;-79
2022/08/20 11:28:33;;;;;;;9.13;7.60;;;;;;;31.86;31.21;94160.25;5099178;27;20031;-83
2022/08/20 11:31:00;;;;;;;7.82;7.03;;;;;;;31.86;31.40;94162.94;5115201;27;20023;-83
2022/08/20 11:33:25;;;;;;;8.13;7.32;;;;;;;32.13;31.94;94187.53;5116425;27;20034;-83
2022/08/20 11:35:51;;;;;;;7.85;6.78;;;;;;;32.05;31.66;94186.22;5099295;27;20027;-81